createdAt,value
2022-11-17T00:00:44.886Z,7.03
2022-11-17T00:03:16.033Z,7.13
2022-11-17T00:05:46.394Z,7.47
2022-11-17T00:08:14.735Z,6.57
2022-11-17T00:10:43.209Z,5.60
2022-11-17T00:13:30.222Z,5.78
2022-11-17T00:15:58.629Z,4.57
2022-11-17T00:18:45.677Z,5.28
2022-11-17T00:21:22.136Z,5.30
2022-11-17T00:23:51.072Z,6.15
2022-11-17T00:26:21.584Z,6.28
2022-11-17T00:28:54.216Z,5.88
2022-11-17T00:31:43.398Z,6.53
2022-11-17T00:34:15.562Z,6.43
2022-11-17T00:36:48.523Z,6.30
2022-11-17T00:39:18.843Z,6.25
2022-11-17T00:41:47.825Z,6.25
2022-11-17T00:44:16.850Z,5.45
2022-11-17T00:46:45.225Z,6.68
2022-11-17T00:49:15.633Z,6.25
2022-11-17T00:51:46.541Z,6.68
2022-11-17T00:54:15.654Z,6.40
2022-11-17T00:56:46.197Z,5.18
2022-11-17T00:59:18.399Z,6.45
2022-11-17T01:01:47.624Z,5.00
2022-11-17T01:04:20.003Z,6.45
2022-11-17T01:06:51.681Z,5.72
2022-11-17T01:09:23.473Z,6.28
2022-11-17T01:11:54.054Z,5.13
2022-11-17T01:14:25.078Z,6.35
2022-11-17T01:16:55.458Z,5.53
2022-11-17T01:19:25.899Z,6.43
2022-11-17T01:21:56.301Z,5.80
2022-11-17T01:24:24.972Z,5.70
2022-11-17T01:26:53.577Z,5.35
2022-11-17T01:29:23.327Z,5.25
2022-11-17T01:31:54.165Z,6.13
2022-11-17T01:34:22.830Z,5.82
2022-11-17T01:37:08.548Z,6.55
2022-11-17T01:39:38.222Z,5.78
2022-11-17T01:42:15.165Z,5.80
2022-11-17T01:45:00.607Z,6.05
2022-11-17T01:47:44.020Z,5.45
2022-11-17T01:50:26.363Z,5.95
2022-11-17T01:53:00.116Z,4.97
2022-11-17T01:55:35.979Z,5.95
2022-11-17T01:58:10.580Z,5.22
2022-11-17T02:00:39.437Z,5.55
2022-11-17T02:03:11.339Z,5.22
2022-11-17T02:05:51.620Z,5.63
2022-11-17T02:08:25.063Z,4.95
2022-11-17T02:10:55.616Z,5.15
2022-11-17T02:13:24.828Z,4.75
2022-11-17T02:15:54.004Z,5.15
2022-11-17T02:18:23.562Z,4.68
2022-11-17T02:21:23.604Z,4.32
2022-11-17T02:24:29.867Z,4.57
2022-11-17T02:27:33.510Z,4.93
2022-11-17T02:30:05.260Z,4.82
2022-11-17T02:32:46.242Z,5.32
2022-11-17T02:35:24.377Z,7.72
2022-11-17T02:38:02.620Z,6.65
2022-11-17T02:40:36.425Z,6.07
2022-11-17T02:43:30.159Z,5.35
2022-11-17T02:46:04.538Z,4.55
2022-11-17T02:48:36.005Z,4.35
2022-11-17T02:51:06.687Z,5.55
2022-11-17T02:53:36.090Z,7.72
2022-11-17T02:56:05.127Z,7.22
2022-11-17T02:58:36.196Z,5.43
2022-11-17T03:01:34.243Z,4.43
2022-11-17T03:04:23.574Z,5.13
2022-11-17T03:07:05.059Z,5.10
2022-11-17T03:09:48.720Z,5.00
2022-11-17T03:12:26.299Z,4.68
2022-11-17T03:15:04.278Z,4.40
2022-11-17T03:17:41.209Z,4.82
2022-11-17T03:20:15.068Z,4.45
2022-11-17T03:22:50.273Z,4.88
2022-11-17T03:25:23.529Z,5.30
2022-11-17T03:27:56.362Z,5.07
2022-11-17T03:30:26.834Z,4.55
2022-11-17T03:33:05.155Z,4.63
2022-11-17T03:35:38.236Z,4.35
2022-11-17T03:39:16.819Z,5.40
2022-11-17T03:45:56.928Z,5.00
2022-11-17T03:48:32.529Z,4.85
2022-11-17T03:51:09.199Z,4.68
2022-11-17T03:53:38.542Z,4.70
2022-11-17T03:56:20.698Z,4.68
2022-11-17T03:58:56.902Z,4.55
2022-11-17T04:01:28.815Z,4.07
2022-11-17T04:03:57.242Z,4.47
2022-11-17T04:06:25.640Z,5.32
2022-11-17T04:08:54.313Z,4.80
2022-11-17T04:11:40.348Z,4.80
2022-11-17T04:14:29.022Z,5.55
2022-11-17T04:17:00.957Z,5.60
2022-11-17T04:19:29.238Z,5.63
2022-11-17T04:21:57.485Z,5.65
2022-11-17T04:24:25.812Z,5.45
2022-11-17T04:27:11.584Z,5.60
2022-11-17T04:29:40.342Z,5.22
2022-11-17T04:32:10.111Z,5.20
2022-11-17T04:34:41.612Z,5.07
2022-11-17T04:37:17.384Z,5.25
2022-11-17T04:39:46.525Z,4.80
2022-11-17T04:42:13.949Z,4.35
2022-11-17T04:44:42.889Z,4.78
2022-11-17T04:47:12.592Z,4.03
2022-11-17T04:49:40.883Z,3.75
2022-11-17T04:52:09.182Z,3.90
2022-11-17T04:54:37.685Z,4.50
2022-11-17T04:57:05.947Z,4.40
2022-11-17T04:59:34.240Z,4.40
2022-11-17T05:02:05.878Z,3.92
2022-11-17T05:04:53.704Z,3.92
2022-11-17T05:07:22.033Z,4.13
2022-11-17T05:09:50.325Z,4.05
2022-11-17T05:12:36.359Z,4.05
2022-11-17T05:15:05.136Z,3.95
2022-11-17T05:17:32.434Z,4.30
2022-11-17T05:20:02.406Z,4.50
2022-11-17T05:22:48.218Z,3.67
2022-11-17T05:25:16.872Z,4.72
2022-11-17T05:27:47.747Z,4.00
2022-11-17T05:30:17.053Z,3.72
2022-11-17T05:32:45.547Z,4.30
2022-11-17T05:35:15.446Z,3.88
2022-11-17T05:37:43.996Z,4.35
2022-11-17T05:40:13.122Z,3.63
2022-11-17T05:42:41.415Z,4.13
2022-11-17T05:45:11.128Z,3.70
2022-11-17T05:47:39.999Z,4.10
2022-11-17T05:50:09.167Z,4.10
2022-11-17T05:52:38.962Z,3.85
2022-11-17T05:55:08.870Z,3.63
2022-11-17T05:57:37.522Z,3.75
2022-11-17T06:00:09.028Z,3.22
2022-11-17T06:02:43.169Z,3.50
2022-11-17T06:05:17.066Z,4.25
2022-11-17T06:07:50.234Z,3.40
2022-11-17T06:10:19.436Z,3.10
2022-11-17T06:12:48.116Z,3.15
2022-11-17T06:15:16.740Z,3.55
2022-11-17T06:17:51.000Z,3.58
2022-11-17T06:20:23.813Z,3.42
2022-11-17T06:22:56.769Z,2.90
2022-11-17T06:25:29.352Z,3.10
2022-11-17T06:27:59.846Z,2.75
2022-11-17T06:30:28.412Z,2.97
2022-11-17T06:32:57.262Z,2.92
2022-11-17T06:35:26.695Z,2.92
2022-11-17T06:37:56.927Z,4.45
2022-11-17T06:40:26.449Z,3.97
2022-11-17T06:43:10.554Z,3.03
2022-11-17T06:45:40.874Z,2.47
2022-11-17T06:48:11.049Z,2.83
2022-11-17T06:50:39.517Z,2.50
2022-11-17T06:53:12.899Z,2.90
2022-11-17T06:55:41.821Z,2.78
2022-11-17T06:58:12.384Z,2.75
2022-11-17T07:00:40.995Z,3.08
2022-11-17T07:03:11.519Z,2.88
2022-11-17T07:05:40.661Z,3.00
2022-11-17T07:08:10.800Z,3.10
2022-11-17T07:10:41.657Z,3.22
2022-11-17T07:13:12.448Z,3.40
2022-11-17T07:15:40.983Z,3.58
2022-11-17T07:18:09.320Z,2.97
2022-11-17T07:20:37.780Z,3.70
2022-11-17T07:23:06.228Z,3.83
2022-11-17T07:25:36.265Z,3.38
2022-11-17T07:28:06.348Z,3.33
2022-11-17T07:30:35.202Z,3.13
2022-11-17T07:33:03.626Z,3.42
2022-11-17T07:35:31.947Z,3.20
2022-11-17T07:38:01.495Z,3.30
2022-11-17T07:40:30.543Z,3.92
2022-11-17T07:43:01.187Z,3.67
2022-11-17T07:45:31.800Z,3.42
2022-11-17T07:48:02.953Z,3.28
2022-11-17T07:50:32.116Z,3.03
2022-11-17T07:53:02.064Z,2.40
2022-11-17T07:55:30.464Z,1.92
2022-11-17T07:58:02.054Z,1.98
2022-11-17T08:00:33.720Z,1.75
2022-11-17T08:03:04.180Z,1.77
2022-11-17T08:05:35.865Z,2.08
2022-11-17T08:08:09.357Z,2.03
2022-11-17T08:10:37.880Z,1.77
2022-11-17T08:13:07.757Z,1.90
2022-11-17T08:15:36.986Z,1.85
2022-11-17T08:18:06.248Z,1.80
2022-11-17T08:20:34.589Z,1.73
2022-11-17T08:23:02.914Z,1.80
2022-11-17T08:25:31.274Z,2.03
2022-11-17T08:28:00.131Z,1.52
2022-11-17T08:30:30.591Z,2.08
2022-11-17T08:32:58.914Z,1.70
2022-11-17T08:35:30.682Z,2.05
2022-11-17T08:38:01.361Z,1.75
2022-11-17T08:40:29.711Z,2.00
2022-11-17T08:43:01.536Z,2.08
2022-11-17T08:45:31.614Z,1.73
2022-11-17T08:48:00.271Z,1.42
2022-11-17T08:50:28.824Z,1.80
2022-11-17T08:52:57.236Z,1.50
2022-11-17T08:55:26.428Z,1.40
2022-11-17T08:57:54.904Z,1.27
2022-11-17T09:00:23.772Z,1.08
2022-11-17T09:02:53.519Z,1.05
2022-11-17T09:05:21.986Z,1.17
2022-11-17T09:07:50.441Z,1.30
2022-11-17T09:10:19.480Z,1.27
2022-11-17T09:12:47.907Z,1.20
2022-11-17T09:15:16.517Z,0.93
2022-11-17T09:17:47.819Z,1.10
2022-11-17T09:20:18.856Z,0.90
2022-11-17T09:22:47.720Z,0.77
2022-11-17T09:25:16.988Z,1.10
2022-11-17T09:27:45.465Z,1.05
2022-11-17T09:30:14.493Z,0.80
2022-11-17T09:32:42.836Z,1.17
2022-11-17T09:35:11.321Z,1.13
2022-11-17T09:37:40.997Z,1.00
2022-11-17T09:40:15.235Z,1.30
2022-11-17T09:42:43.683Z,1.25
2022-11-17T09:45:19.555Z,1.13
2022-11-17T09:48:12.462Z,1.40
2022-11-17T09:50:46.486Z,1.27
2022-11-17T09:53:26.078Z,1.23
2022-11-17T09:55:57.921Z,1.30
2022-11-17T09:58:34.741Z,1.08
2022-11-17T10:01:03.427Z,1.15
2022-11-17T10:03:38.829Z,1.10
2022-11-17T10:06:16.329Z,1.05
2022-11-17T10:09:00.399Z,1.55
2022-11-17T10:11:35.959Z,1.52
2022-11-17T10:14:14.127Z,1.08
2022-11-17T10:16:46.002Z,0.90
2022-11-17T10:19:20.258Z,0.70
2022-11-17T10:21:53.308Z,1.38
2022-11-17T10:24:42.209Z,1.52
2022-11-17T10:27:23.298Z,1.10
2022-11-17T10:30:03.795Z,1.50
2022-11-17T10:32:35.694Z,1.30
2022-11-17T10:35:20.045Z,1.00
2022-11-17T10:37:56.539Z,1.05
2022-11-17T10:40:29.717Z,1.08
2022-11-17T10:43:22.042Z,1.00
2022-11-17T10:45:53.950Z,0.90
2022-11-17T10:48:28.315Z,1.50
2022-11-17T10:50:58.970Z,1.85
2022-11-17T10:53:45.062Z,1.10
2022-11-17T10:56:21.073Z,1.23
2022-11-17T10:59:05.227Z,1.00
2022-11-17T11:01:37.507Z,1.40
2022-11-17T11:04:08.677Z,1.40
2022-11-17T11:06:37.504Z,1.13
2022-11-17T11:09:13.185Z,0.80
2022-11-17T11:11:47.808Z,1.40
2022-11-17T11:14:22.887Z,2.72
2022-11-17T11:16:52.118Z,2.75
2022-11-17T11:19:22.145Z,0.90
2022-11-17T11:22:21.590Z,1.00
2022-11-17T11:24:58.451Z,1.02
2022-11-17T11:27:46.697Z,0.88
2022-11-17T11:30:17.255Z,1.30
2022-11-17T11:33:02.681Z,1.20
2022-11-17T11:35:46.503Z,1.13
2022-11-17T11:38:39.620Z,1.08
2022-11-17T11:41:26.050Z,1.23
2022-11-17T11:44:15.726Z,1.00
2022-11-17T11:46:52.824Z,1.00
2022-11-17T11:49:32.983Z,1.42
2022-11-17T11:52:03.483Z,1.27
2022-11-17T11:54:40.302Z,1.13
2022-11-17T11:57:13.843Z,0.85
2022-11-17T11:59:53.476Z,1.30
2022-11-17T12:02:30.317Z,0.93
2022-11-17T12:05:09.255Z,0.90
2022-11-17T12:07:47.238Z,0.95
2022-11-17T12:10:22.584Z,1.15
2022-11-17T12:12:52.091Z,0.98
2022-11-17T12:15:35.792Z,1.00
2022-11-17T12:18:13.097Z,1.15
2022-11-17T12:20:58.184Z,1.63
2022-11-17T12:24:15.796Z,1.00
2022-11-17T12:26:46.269Z,0.95
2022-11-17T12:29:34.481Z,0.90
2022-11-17T12:32:05.054Z,0.95
2022-11-17T12:34:37.269Z,0.93
2022-11-17T12:37:26.544Z,1.05
2022-11-17T12:40:07.930Z,0.90
2022-11-17T12:42:37.753Z,0.93
2022-11-17T12:45:12.058Z,0.65
2022-11-17T12:47:59.212Z,1.00
2022-11-17T12:50:50.992Z,0.90
2022-11-17T12:53:34.408Z,0.98
2022-11-17T12:56:57.666Z,1.00
2022-11-17T13:00:15.031Z,0.88
2022-11-17T13:03:00.765Z,1.10
2022-11-17T13:05:36.796Z,0.98
2022-11-17T13:08:24.366Z,0.80
2022-11-17T13:11:06.700Z,1.27
2022-11-17T13:13:37.112Z,0.80
2022-11-17T13:16:06.787Z,1.00
2022-11-17T13:18:42.032Z,0.80
2022-11-17T13:21:30.073Z,1.20
2022-11-17T13:24:01.453Z,0.88
2022-11-17T13:26:35.962Z,1.00
2022-11-17T13:29:07.975Z,1.13
2022-11-17T13:31:36.582Z,2.05
2022-11-17T13:34:14.237Z,1.58
2022-11-17T13:36:54.929Z,1.42
2022-11-17T13:39:27.317Z,1.05
2022-11-17T13:41:56.816Z,1.48
2022-11-17T13:44:28.776Z,2.17
2022-11-17T13:46:59.225Z,3.15
2022-11-17T13:49:38.654Z,4.07
2022-11-17T13:52:15.510Z,1.70
2022-11-17T13:54:46.206Z,1.15
2022-11-17T13:57:25.115Z,1.20
2022-11-17T13:59:53.756Z,0.93
2022-11-17T14:02:29.458Z,1.25
2022-11-17T14:05:25.830Z,0.55
2022-11-17T14:07:56.886Z,1.05
2022-11-17T14:10:33.044Z,1.38
2022-11-17T14:13:26.527Z,1.00
2022-11-17T14:16:01.131Z,0.90
2022-11-17T14:18:34.157Z,0.90
2022-11-17T14:21:15.024Z,0.93
2022-11-17T14:23:44.727Z,0.98
2022-11-17T14:26:20.884Z,1.10
2022-11-17T14:28:50.777Z,0.93
2022-11-17T14:31:19.989Z,1.20
2022-11-17T14:33:50.491Z,1.13
2022-11-17T14:36:20.494Z,0.80
2022-11-17T14:38:49.644Z,1.42
2022-11-17T14:41:19.475Z,1.30
2022-11-17T14:43:48.556Z,0.65
2022-11-17T14:46:21.585Z,1.13
2022-11-17T14:48:50.208Z,3.95
2022-11-17T14:51:21.022Z,3.35
2022-11-17T14:53:49.933Z,2.40
2022-11-17T14:56:21.764Z,1.45
2022-11-17T14:58:56.367Z,0.70
2022-11-17T15:01:29.070Z,1.27
2022-11-17T15:03:58.944Z,0.75
2022-11-17T15:06:29.351Z,0.70
2022-11-17T15:09:00.132Z,0.80
2022-11-17T15:11:39.249Z,0.65
2022-11-17T15:14:08.295Z,0.73
2022-11-17T15:16:37.660Z,0.75
2022-11-17T15:19:06.851Z,0.70
2022-11-17T15:21:36.781Z,0.63
2022-11-17T15:24:06.520Z,0.68
2022-11-17T15:26:35.812Z,0.90
2022-11-17T15:29:04.252Z,0.90
2022-11-17T15:31:32.859Z,0.60
2022-11-17T15:34:02.849Z,1.95
2022-11-17T15:36:31.948Z,0.82
2022-11-17T15:39:02.015Z,2.08
2022-11-17T15:41:32.977Z,1.00
2022-11-17T15:44:01.795Z,1.05
2022-11-17T15:46:30.122Z,0.85
2022-11-17T15:48:58.562Z,0.65
2022-11-17T15:51:29.020Z,0.90
2022-11-17T15:53:59.819Z,0.80
2022-11-17T15:56:32.178Z,0.88
2022-11-17T15:59:03.253Z,0.90
2022-11-17T16:01:35.504Z,0.70
2022-11-17T16:04:06.128Z,0.68
2022-11-17T16:06:39.283Z,1.02
2022-11-17T16:09:08.348Z,1.00
2022-11-17T16:11:38.729Z,0.90
2022-11-17T16:14:08.049Z,0.90
2022-11-17T16:16:39.586Z,1.00
2022-11-17T16:19:08.900Z,1.38
2022-11-17T16:21:37.191Z,1.50
2022-11-17T16:24:08.262Z,1.30
2022-11-17T16:26:38.354Z,1.67
2022-11-17T16:29:08.917Z,1.45
2022-11-17T16:31:39.762Z,7.38
2022-11-17T16:34:12.876Z,4.82
2022-11-17T16:36:43.739Z,1.63
2022-11-17T16:39:14.670Z,1.15
2022-11-17T16:41:46.477Z,1.20
2022-11-17T16:44:20.123Z,3.00
2022-11-17T16:46:50.818Z,5.50
2022-11-17T16:49:20.752Z,4.03
2022-11-17T16:51:51.471Z,3.00
2022-11-17T16:54:20.385Z,3.63
2022-11-17T16:56:50.350Z,7.28
2022-11-17T16:59:18.966Z,13.30
2022-11-17T17:01:47.729Z,15.85
2022-11-17T17:04:16.242Z,16.45
2022-11-17T17:06:46.370Z,15.65
2022-11-17T17:09:17.211Z,16.90
2022-11-17T17:11:47.111Z,12.18
2022-11-17T17:14:17.799Z,11.00
2022-11-17T17:16:46.258Z,11.43
2022-11-17T17:19:16.574Z,9.30
2022-11-17T17:21:45.701Z,6.47
2022-11-17T17:24:14.537Z,5.32
2022-11-17T17:26:42.926Z,5.38
2022-11-17T17:29:12.538Z,8.57
2022-11-17T17:31:43.492Z,5.55
2022-11-17T17:34:14.983Z,3.88
2022-11-17T17:36:43.893Z,3.40
2022-11-17T17:39:16.291Z,2.80
2022-11-17T17:41:46.114Z,3.35
2022-11-17T17:44:17.859Z,3.22
2022-11-17T17:46:48.727Z,2.10
2022-11-17T17:49:19.001Z,1.70
2022-11-17T17:51:47.824Z,2.35
2022-11-17T17:54:18.746Z,2.00
2022-11-17T17:56:49.537Z,1.83
2022-11-17T17:59:19.040Z,2.20
2022-11-17T18:01:49.686Z,2.42
2022-11-17T18:04:18.050Z,3.13
2022-11-17T18:06:48.283Z,3.72
2022-11-17T18:09:19.497Z,2.30
2022-11-17T18:11:50.116Z,2.13
2022-11-17T18:14:22.407Z,1.23
2022-11-17T18:16:52.726Z,1.30
2022-11-17T18:19:21.144Z,1.58
2022-11-17T18:21:49.462Z,1.30
2022-11-17T18:24:17.956Z,1.30
2022-11-17T18:26:46.327Z,9.50
2022-11-17T18:29:18.412Z,4.43
2022-11-17T18:31:49.373Z,5.68
2022-11-17T18:34:21.857Z,3.40
2022-11-17T18:36:50.930Z,5.40
2022-11-17T18:39:21.455Z,1.30
2022-11-17T18:41:56.762Z,1.73
2022-11-17T18:44:25.103Z,1.65
2022-11-17T18:46:55.020Z,1.50
2022-11-17T18:49:28.063Z,1.73
2022-11-17T18:51:56.559Z,1.90
2022-11-17T18:54:24.903Z,1.67
2022-11-17T18:56:53.369Z,2.03
2022-11-17T18:59:21.883Z,2.97
2022-11-17T19:01:51.774Z,1.60
2022-11-17T19:04:20.573Z,1.45
2022-11-17T19:06:50.956Z,2.13
2022-11-17T19:09:21.314Z,1.48
2022-11-17T19:11:49.595Z,1.63
2022-11-17T19:14:18.021Z,1.75
2022-11-17T19:16:46.512Z,1.55
2022-11-17T19:19:15.660Z,1.30
2022-11-17T19:21:44.539Z,1.38
2022-11-17T19:24:15.279Z,1.90
2022-11-17T19:26:44.026Z,2.28
2022-11-17T19:29:17.259Z,1.50
2022-11-17T19:31:47.504Z,1.55
2022-11-17T19:34:16.357Z,1.30
2022-11-17T19:36:45.429Z,0.80
2022-11-17T19:39:17.039Z,1.85
2022-11-17T19:41:47.660Z,0.90
2022-11-17T19:44:16.111Z,1.23
2022-11-17T19:46:44.454Z,1.15
2022-11-17T19:49:14.009Z,1.00
2022-11-17T19:51:42.556Z,0.73
2022-11-17T19:54:12.023Z,0.95
2022-11-17T19:56:41.989Z,1.10
2022-11-17T19:59:15.565Z,0.65
2022-11-17T20:01:46.785Z,1.08
2022-11-17T20:04:15.655Z,1.30
2022-11-17T20:06:44.156Z,1.00
2022-11-17T20:09:15.058Z,0.88
2022-11-17T20:11:45.454Z,0.70
2022-11-17T20:14:14.532Z,0.90
2022-11-17T20:16:43.148Z,1.10
2022-11-17T20:19:12.308Z,0.70
2022-11-17T20:21:40.908Z,0.77
2022-11-17T20:24:09.998Z,0.60
2022-11-17T20:26:40.846Z,0.77
2022-11-17T20:29:10.709Z,0.50
2022-11-17T20:31:39.173Z,0.63
2022-11-17T20:34:07.786Z,0.90
2022-11-17T20:36:36.445Z,0.88
2022-11-17T20:39:07.804Z,0.70
2022-11-17T20:41:36.720Z,0.70
2022-11-17T20:44:05.497Z,0.95
2022-11-17T20:46:35.434Z,0.70
2022-11-17T20:49:03.764Z,0.70
2022-11-17T20:51:34.552Z,0.75
2022-11-17T20:54:04.114Z,0.57
2022-11-17T20:56:32.621Z,0.65
2022-11-17T20:59:01.454Z,1.60
2022-11-17T21:01:29.865Z,1.52
2022-11-17T21:03:59.751Z,0.98
2022-11-17T21:06:29.646Z,0.65
2022-11-17T21:08:57.909Z,0.70
2022-11-17T21:11:43.914Z,0.80
2022-11-17T21:14:14.381Z,1.02
2022-11-17T21:16:45.673Z,0.90
2022-11-17T21:19:16.541Z,0.77
2022-11-17T21:21:45.353Z,0.88
2022-11-17T21:24:14.501Z,1.30
2022-11-17T21:26:43.219Z,1.15
2022-11-17T21:29:11.546Z,1.15
2022-11-17T21:31:39.899Z,1.08
2022-11-17T21:34:08.832Z,0.82
2022-11-17T21:36:38.580Z,1.60
2022-11-17T21:39:06.994Z,0.90
2022-11-17T21:41:37.846Z,0.80
2022-11-17T21:44:06.737Z,0.90
2022-11-17T21:46:36.253Z,0.65
2022-11-17T21:49:05.087Z,0.60
2022-11-17T21:51:39.008Z,0.50
2022-11-17T21:54:09.756Z,0.90
2022-11-17T21:56:38.345Z,0.68
2022-11-17T21:59:11.304Z,0.70
2022-11-17T22:01:40.428Z,0.63
2022-11-17T22:04:16.516Z,1.02
2022-11-17T22:06:46.808Z,0.70
2022-11-17T22:09:15.449Z,0.60
2022-11-17T22:11:44.020Z,0.60
2022-11-17T22:14:14.766Z,0.52
2022-11-17T22:16:45.025Z,0.50
2022-11-17T22:19:14.936Z,0.63
2022-11-17T22:21:46.119Z,0.50
2022-11-17T22:24:14.852Z,0.47
2022-11-17T22:26:45.601Z,0.60
2022-11-17T22:29:17.817Z,0.80
2022-11-17T22:31:48.549Z,0.75
2022-11-17T22:34:19.247Z,0.85
2022-11-17T22:36:51.411Z,0.50
2022-11-17T22:39:20.248Z,0.50
2022-11-17T22:41:48.862Z,0.55
2022-11-17T22:44:19.528Z,0.40
2022-11-17T22:46:49.064Z,0.40
2022-11-17T22:49:17.930Z,0.60
2022-11-17T22:52:07.655Z,0.60
2022-11-17T22:54:36.294Z,0.47
2022-11-17T22:57:05.827Z,0.50
2022-11-17T22:59:38.220Z,0.60
2022-11-17T23:02:06.540Z,0.80
2022-11-17T23:04:34.974Z,0.60
2022-11-17T23:07:04.776Z,0.40
2022-11-17T23:09:33.105Z,0.40
2022-11-17T23:12:02.461Z,0.50
2022-11-17T23:14:30.967Z,0.45
2022-11-17T23:16:59.462Z,0.50
2022-11-17T23:19:27.761Z,0.40
2022-11-17T23:21:56.102Z,0.60
2022-11-17T23:24:25.971Z,0.50
2022-11-17T23:26:54.334Z,0.50
2022-11-17T23:29:22.823Z,0.50
2022-11-17T23:31:51.211Z,0.32
2022-11-17T23:34:27.626Z,1.45
2022-11-17T23:37:04.290Z,0.55
2022-11-17T23:39:34.395Z,0.70
2022-11-17T23:42:03.091Z,0.80
2022-11-17T23:44:31.849Z,0.85
2022-11-17T23:47:00.198Z,0.90
2022-11-17T23:49:28.536Z,0.90
2022-11-17T23:51:56.851Z,0.70
2022-11-17T23:54:25.916Z,0.70
2022-11-17T23:56:55.732Z,0.80
2022-11-17T23:59:24.147Z,0.75
